KEET

Shelby County Airport

Alabaster, Alabama, USA
METAR KEET 170553Z AUTO 00000KT 10SM CLR 03/01 A3024 RMK AO2 SLP241 T00280006 10056 20028 401281044 58006
Observed Flight Rules
Dec-17 @ 05:53 UTC (20 minutes ago) Visual Flight Rules
Wind Visibility Clouds
Calm 10 miles
  • Clear skies
Temperatures Readings
Current 3°C / 37°F
Dewpoint 1°C / 34°F
Humidity 87%
Altimeter 30.24" Hg
Pressure 1024.1 hPa
Elevation 173
METAR KEET 170553Z AUTO 00000KT 10SM CLR 03/01 A3024 RMK AO2 SLP241 T00280006 10056 20028 401281044 58006
Observed Flight Rules
Dec-17 @ 05:53 UTC
(20 minutes ago)
VFR
Wind Visibility
Calm 10 miles
Clouds
  • Clear skies
Temperature Dewpoint
3°C / 37°F 1°C / 34°F
Humidity Altimeter Pressure
87% 30.24" Hg 1024.1 hPa